Time;durP1;ratioP1;P1;durP2;ratioP2;P2;SDS_P1;SDS_P2;PMS_P1;PMS_P2;Temp;Humidity;BMP_temperature;BMP_pressure;BME280_temperature;BME280_humidity;BME280_pressure;Samples;Min_cycle;Max_cycle;Signal;HPM_P1;HPM_P2
2022/11/25 00:02:18;;;;;;;0.10;0.10;;;8.80;99.90;;;;;;4993977;28;20046;-65
2022/11/25 00:04:44;;;;;;;0.38;0.38;;;8.80;99.90;;;;;;5013191;28;20041;-65
2022/11/25 00:07:10;;;;;;;9.95;1.75;;;8.90;99.90;;;;;;5007559;28;20506;-65
2022/11/25 00:09:35;;;;;;;0.55;0.55;;;9.00;99.90;;;;;;5009974;28;20041;-65
2022/11/25 00:12:01;;;;;;;0.45;0.45;;;8.90;99.90;;;;;;5014364;28;20046;-65
2022/11/25 00:14:26;;;;;;;0.68;0.68;;;8.90;99.90;;;;;;5009231;28;20038;-65
2022/11/25 00:16:52;;;;;;;0.10;0.10;;;8.90;99.90;;;;;;5005485;28;20042;-66
2022/11/25 00:19:17;;;;;;;0.47;0.35;;;8.80;99.90;;;;;;5010075;28;20113;-66
2022/11/25 00:21:43;;;;;;;0.05;0.05;;;8.90;99.90;;;;;;5005085;28;20046;-65
2022/11/25 00:24:12;;;;;;;0.10;0.10;;;8.90;99.90;;;;;;5002441;28;20084;-65
2022/11/25 00:26:37;;;;;;;0.52;0.52;;;8.90;99.90;;;;;;4995394;28;20052;-65
2022/11/25 00:29:05;;;;;;;0.20;0.20;;;8.90;99.90;;;;;;5010186;28;20053;-65
2022/11/25 00:31:33;;;;;;;0.05;0.05;;;8.90;99.90;;;;;;4987067;28;20093;-65
2022/11/25 00:33:59;;;;;;;0.30;0.30;;;8.90;99.90;;;;;;5010385;28;20061;-65
2022/11/25 00:36:31;;;;;;;0.10;0.10;;;8.90;99.90;;;;;;5002333;28;20054;-65
2022/11/25 00:38:59;;;;;;;0.10;0.10;;;8.90;99.90;;;;;;5011220;28;20046;-65
2022/11/25 00:46:57;;;;;;;1.52;0.40;;;8.90;99.90;;;;;;5014669;28;20615;-65
2022/11/25 00:49:23;;;;;;;1.65;1.17;;;8.90;99.90;;;;;;4988764;28;20137;-66
2022/11/25 00:51:49;;;;;;;0.10;0.10;;;9.00;99.90;;;;;;5003571;28;20041;-65
2022/11/25 00:54:15;;;;;;;0.10;0.10;;;9.00;99.90;;;;;;5018366;28;20401;-64
2022/11/25 00:56:40;;;;;;;0.20;0.20;;;9.00;99.90;;;;;;5015261;28;20474;-65
2022/11/25 00:59:06;;;;;;;0.20;0.20;;;8.90;99.90;;;;;;4991002;28;20076;-65
2022/11/25 01:01:32;;;;;;;0.05;0.05;;;8.90;99.90;;;;;;5002689;28;20042;-65
2022/11/25 01:03:58;;;;;;;0.20;0.20;;;8.90;99.90;;;;;;4989655;28;20053;-65
2022/11/25 01:06:24;;;;;;;0.00;0.00;;;9.00;99.90;;;;;;5007779;28;20046;-65
2022/11/25 01:08:49;;;;;;;0.35;0.35;;;8.90;99.90;;;;;;5002436;28;20038;-65
2022/11/25 01:11:20;;;;;;;0.47;0.47;;;8.90;99.90;;;;;;5002147;28;20077;-65
2022/11/25 01:13:46;;;;;;;0.10;0.10;;;8.90;99.90;;;;;;5027089;28;20057;-65
2022/11/25 01:16:14;;;;;;;0.10;0.10;;;8.90;99.90;;;;;;5008060;28;20795;-65
2022/11/25 01:18:40;;;;;;;0.17;0.17;;;8.90;99.90;;;;;;4994749;28;20045;-65
2022/11/25 01:21:07;;;;;;;0.63;0.47;;;8.90;99.90;;;;;;5002738;28;20145;-65
2022/11/25 01:23:34;;;;;;;3.08;0.52;;;8.90;99.90;;;;;;5008241;28;20046;-65
2022/11/25 01:26:01;;;;;;;0.20;0.20;;;8.90;99.90;;;;;;5009558;28;20047;-65
2022/11/25 01:28:27;;;;;;;1.10;1.00;;;8.90;99.90;;;;;;5025078;28;20117;-66
2022/11/25 01:31:03;;;;;;;0.13;0.13;;;8.90;99.90;;;;;;5001892;28;20612;-66
2022/11/25 01:33:31;;;;;;;0.10;0.10;;;8.90;99.90;;;;;;5011796;28;20482;-66
2022/11/25 01:36:10;;;;;;;0.00;0.00;;;8.80;99.90;;;;;;5009492;28;20054;-65
2022/11/25 01:38:36;;;;;;;0.10;0.10;;;8.90;99.90;;;;;;5011082;28;20053;-66
2022/11/25 01:41:02;;;;;;;0.10;0.10;;;8.80;99.90;;;;;;5012650;28;20042;-66
2022/11/25 01:43:28;;;;;;;0.85;0.85;;;8.80;99.90;;;;;;5000519;28;20035;-66
2022/11/25 01:45:59;;;;;;;0.40;0.40;;;8.80;99.90;;;;;;4998097;28;20042;-66
2022/11/25 01:48:31;;;;;;;0.10;0.10;;;8.80;99.90;;;;;;4996275;28;20042;-66
2022/11/25 01:50:58;;;;;;;0.00;0.00;;;8.90;99.90;;;;;;5011902;28;20807;-66
2022/11/25 01:53:24;;;;;;;0.10;0.10;;;8.80;99.90;;;;;;5010609;28;20046;-66
2022/11/25 01:56:00;;;;;;;0.13;0.13;;;8.80;99.90;;;;;;4997339;28;20093;-66
2022/11/25 01:58:31;;;;;;;0.70;0.70;;;8.80;99.90;;;;;;5006320;28;20401;-66
2022/11/25 02:00:57;;;;;;;2.97;1.17;;;8.80;99.90;;;;;;5010548;28;20045;-67
2022/11/25 02:03:35;;;;;;;0.00;0.00;;;8.80;99.90;;;;;;4999634;28;20046;-67
2022/11/25 02:06:14;;;;;;;0.10;0.10;;;8.80;99.90;;;;;;5011663;28;20100;-66
2022/11/25 02:08:42;;;;;;;0.90;0.55;;;8.80;99.90;;;;;;5011364;28;20048;-67
2022/11/25 02:11:08;;;;;;;0.47;0.47;;;8.80;99.90;;;;;;5005519;28;20038;-66
2022/11/25 02:13:34;;;;;;;0.10;0.10;;;8.80;99.90;;;;;;4999515;28;20072;-67
2022/11/25 02:16:00;;;;;;;0.10;0.10;;;8.70;99.90;;;;;;5013490;28;20029;-66
2022/11/25 02:18:26;;;;;;;0.10;0.10;;;8.80;99.90;;;;;;5000933;28;20467;-66
2022/11/25 02:20:52;;;;;;;0.10;0.10;;;8.80;99.90;;;;;;5009784;28;20041;-66
2022/11/25 02:23:33;;;;;;;0.10;0.10;;;8.80;99.90;;;;;;4994464;28;20056;-66
2022/11/25 02:25:59;;;;;;;0.05;0.05;;;8.70;99.90;;;;;;5004811;28;20049;-66
2022/11/25 02:28:28;;;;;;;1.13;1.08;;;8.80;99.90;;;;;;5026299;28;20042;-67
2022/11/25 02:30:53;;;;;;;0.03;0.03;;;8.70;99.90;;;;;;4992267;28;20074;-67
2022/11/25 02:33:19;;;;;;;0.10;0.10;;;8.70;99.90;;;;;;4999120;28;20078;-66
2022/11/25 02:36:09;;;;;;;0.98;0.95;;;8.70;99.90;;;;;;5024811;28;20050;-67
2022/11/25 02:38:41;;;;;;;0.10;0.10;;;8.70;99.90;;;;;;5008956;28;20054;-67
2022/11/25 02:41:10;;;;;;;1.08;0.55;;;8.70;99.90;;;;;;5011668;28;20501;-67
2022/11/25 02:43:36;;;;;;;0.45;0.30;;;8.70;99.90;;;;;;4992467;28;20510;-67
2022/11/25 02:46:08;;;;;;;0.00;0.00;;;8.70;99.90;;;;;;4980157;28;20539;-66
2022/11/25 02:48:35;;;;;;;0.10;0.10;;;8.70;99.90;;;;;;5003004;28;20054;-66
2022/11/25 02:51:02;;;;;;;0.10;0.10;;;8.70;99.90;;;;;;5001840;28;20038;-66
2022/11/25 02:53:28;;;;;;;0.52;0.52;;;8.70;99.90;;;;;;5010655;28;20049;-67
2022/11/25 02:55:53;;;;;;;0.13;0.13;;;8.70;99.90;;;;;;5011615;28;20038;-66
2022/11/25 02:58:20;;;;;;;0.35;0.35;;;8.70;99.90;;;;;;4995894;28;20553;-66
2022/11/25 03:00:46;;;;;;;0.25;0.25;;;8.70;99.90;;;;;;5001746;28;20042;-66
2022/11/25 03:03:12;;;;;;;0.10;0.10;;;8.70;99.90;;;;;;5008660;28;20050;-67
2022/11/25 03:05:38;;;;;;;0.10;0.10;;;8.70;99.90;;;;;;4975019;28;20057;-67
2022/11/25 03:08:04;;;;;;;0.10;0.10;;;8.70;99.90;;;;;;5005549;28;20058;-66
2022/11/25 03:10:30;;;;;;;0.30;0.30;;;8.80;99.90;;;;;;4995258;28;20494;-67
2022/11/25 03:12:56;;;;;;;0.10;0.10;;;8.70;99.90;;;;;;5005222;28;20088;-66
2022/11/25 03:15:22;;;;;;;0.10;0.10;;;8.70;99.90;;;;;;5007294;28;20073;-67
2022/11/25 03:17:48;;;;;;;0.10;0.10;;;8.70;99.90;;;;;;4997980;28;20049;-67
2022/11/25 03:20:14;;;;;;;0.30;0.30;;;8.70;99.90;;;;;;5010535;28;20038;-67
2022/11/25 03:22:41;;;;;;;0.20;0.20;;;8.70;99.90;;;;;;5004596;28;20062;-67
2022/11/25 03:25:08;;;;;;;0.05;0.05;;;8.70;99.90;;;;;;5010863;28;20502;-67
2022/11/25 03:27:34;;;;;;;0.10;0.10;;;8.70;99.90;;;;;;5008635;28;20070;-67
2022/11/25 03:30:00;;;;;;;0.10;0.10;;;8.70;99.90;;;;;;5008017;28;20045;-67
2022/11/25 03:32:25;;;;;;;1.10;1.10;;;8.70;99.90;;;;;;5006380;28;20108;-67
2022/11/25 03:34:51;;;;;;;0.10;0.10;;;8.70;99.90;;;;;;4988185;28;20050;-67
2022/11/25 03:37:18;;;;;;;0.10;0.10;;;8.70;99.90;;;;;;4993484;28;20058;-67
2022/11/25 03:39:44;;;;;;;0.40;0.40;;;8.80;99.90;;;;;;5006362;28;20490;-67
2022/11/25 03:42:09;;;;;;;0.80;0.80;;;8.80;99.90;;;;;;5013573;28;20056;-67
2022/11/25 03:44:35;;;;;;;0.08;0.08;;;8.80;99.90;;;;;;5002636;28;20034;-67
2022/11/25 03:47:01;;;;;;;0.10;0.10;;;8.80;99.90;;;;;;5003296;28;20104;-67
2022/11/25 03:49:26;;;;;;;0.10;0.10;;;8.80;99.90;;;;;;4995864;28;20038;-67
2022/11/25 03:51:52;;;;;;;1.48;1.20;;;8.80;99.90;;;;;;4997310;28;20066;-67
2022/11/25 03:54:17;;;;;;;0.10;0.10;;;8.90;99.90;;;;;;5003025;28;20397;-67
2022/11/25 03:56:43;;;;;;;0.05;0.05;;;8.80;99.90;;;;;;4981314;28;20169;-67
2022/11/25 03:59:08;;;;;;;4.63;1.38;;;8.80;99.90;;;;;;4995222;28;20084;-67
2022/11/25 04:01:34;;;;;;;0.35;0.35;;;8.80;99.90;;;;;;4992537;28;20128;-67
2022/11/25 04:04:00;;;;;;;0.10;0.10;;;8.80;99.90;;;;;;5010788;28;20049;-67
2022/11/25 04:06:25;;;;;;;0.30;0.30;;;8.80;99.90;;;;;;4988925;28;20085;-67
2022/11/25 04:08:51;;;;;;;1.10;1.08;;;8.80;99.90;;;;;;4987766;28;20050;-67
2022/11/25 04:11:16;;;;;;;0.00;0.00;;;8.90;99.90;;;;;;4990091;28;20045;-67
2022/11/25 04:13:42;;;;;;;0.10;0.10;;;8.90;99.90;;;;;;5006589;28;20057;-67
2022/11/25 04:16:24;;;;;;;0.10;0.10;;;8.80;99.90;;;;;;5004641;28;20056;-67
2022/11/25 04:18:50;;;;;;;0.00;0.00;;;8.80;99.90;;;;;;5000981;28;20057;-67
2022/11/25 04:21:16;;;;;;;0.52;0.40;;;8.80;99.90;;;;;;5009439;28;20046;-67
2022/11/25 04:23:41;;;;;;;1.65;0.73;;;8.80;99.90;;;;;;5009672;28;20041;-67
2022/11/25 04:26:07;;;;;;;0.10;0.10;;;8.80;99.90;;;;;;5001365;28;20072;-67
2022/11/25 04:28:32;;;;;;;0.20;0.20;;;8.80;99.90;;;;;;4998550;28;20133;-67
2022/11/25 04:30:58;;;;;;;0.10;0.10;;;8.80;99.90;;;;;;4992040;28;20042;-67
2022/11/25 04:33:23;;;;;;;0.73;0.65;;;8.80;99.90;;;;;;5009062;28;20046;-67
2022/11/25 04:35:49;;;;;;;0.00;0.00;;;8.70;99.90;;;;;;5002942;28;20058;-67
2022/11/25 04:38:15;;;;;;;0.10;0.10;;;8.70;99.90;;;;;;5004796;28;20133;-67
2022/11/25 04:40:40;;;;;;;0.10;0.10;;;8.80;99.90;;;;;;4983651;28;20038;-67
2022/11/25 04:43:06;;;;;;;0.00;0.00;;;8.70;99.90;;;;;;5008981;28;20486;-67
2022/11/25 04:45:31;;;;;;;0.10;0.10;;;8.70;99.90;;;;;;4999560;28;20038;-67
2022/11/25 04:47:57;;;;;;;0.00;0.00;;;8.70;99.90;;;;;;5009442;28;20037;-67
2022/11/25 04:50:23;;;;;;;0.10;0.10;;;8.70;99.90;;;;;;5009557;28;20042;-67
2022/11/25 04:52:48;;;;;;;0.10;0.10;;;8.70;99.90;;;;;;4997133;28;20073;-67
2022/11/25 04:55:14;;;;;;;0.55;0.50;;;8.70;99.90;;;;;;5010039;28;20389;-67
2022/11/25 04:57:40;;;;;;;0.10;0.10;;;8.70;99.90;;;;;;5008190;28;20046;-67
2022/11/25 05:00:08;;;;;;;0.93;0.30;;;8.70;99.90;;;;;;5006934;28;20042;-67
2022/11/25 05:02:33;;;;;;;0.10;0.10;;;8.70;99.90;;;;;;4994962;28;20149;-67
2022/11/25 05:04:59;;;;;;;0.20;0.20;;;8.70;99.90;;;;;;5010910;28;20124;-67
2022/11/25 05:07:26;;;;;;;0.10;0.10;;;8.70;99.90;;;;;;5012183;28;20511;-67
2022/11/25 05:09:52;;;;;;;0.20;0.20;;;8.70;99.90;;;;;;4989207;28;20498;-67
2022/11/25 05:12:21;;;;;;;0.10;0.10;;;8.70;99.90;;;;;;4993586;28;20046;-67
2022/11/25 05:14:48;;;;;;;0.10;0.10;;;8.70;99.90;;;;;;5001954;28;20528;-67
2022/11/25 05:17:16;;;;;;;0.20;0.20;;;8.70;99.90;;;;;;5017633;28;20045;-68
2022/11/25 05:19:43;;;;;;;0.20;0.20;;;8.70;99.90;;;;;;5001450;28;20043;-68
2022/11/25 05:22:18;;;;;;;0.10;0.10;;;8.70;99.90;;;;;;5011304;28;20045;-68
2022/11/25 05:24:43;;;;;;;4.50;1.55;;;8.70;99.90;;;;;;5011004;28;20117;-67
2022/11/25 05:27:10;;;;;;;0.10;0.10;;;8.70;99.90;;;;;;4999956;28;20169;-67
2022/11/25 05:29:36;;;;;;;0.10;0.10;;;8.70;99.90;;;;;;5012661;28;20052;-67
2022/11/25 05:32:02;;;;;;;0.10;0.10;;;8.70;99.90;;;;;;5009858;28;20485;-66
2022/11/25 05:34:28;;;;;;;0.10;0.10;;;8.70;99.90;;;;;;5003408;28;20201;-67
2022/11/25 05:36:54;;;;;;;0.80;0.80;;;8.70;99.90;;;;;;5008998;28;20044;-67
2022/11/25 05:39:20;;;;;;;0.00;0.00;;;8.70;99.90;;;;;;4984960;28;20046;-67
2022/11/25 05:41:45;;;;;;;0.85;0.85;;;8.70;99.90;;;;;;4996912;28;20081;-67
2022/11/25 05:44:11;;;;;;;0.00;0.00;;;8.70;99.90;;;;;;5008699;28;20038;-67
2022/11/25 05:46:36;;;;;;;0.10;0.10;;;8.70;99.90;;;;;;5009070;28;20050;-66
2022/11/25 05:49:02;;;;;;;0.30;0.30;;;8.80;99.90;;;;;;5011645;28;20049;-66
2022/11/25 05:51:28;;;;;;;0.10;0.10;;;8.80;99.90;;;;;;5009095;28;20125;-66
2022/11/25 05:53:55;;;;;;;0.10;0.10;;;8.80;99.90;;;;;;5004049;28;20117;-66
2022/11/25 05:56:21;;;;;;;20.92;1.38;;;8.80;99.90;;;;;;5011340;28;20038;-66
2022/11/25 05:58:46;;;;;;;0.35;0.35;;;8.80;99.90;;;;;;5009346;28;20061;-67
2022/11/25 06:01:14;;;;;;;0.00;0.00;;;8.90;99.90;;;;;;5002492;28;20414;-66
2022/11/25 06:03:40;;;;;;;0.30;0.30;;;8.90;99.90;;;;;;5011915;28;20370;-67
2022/11/25 06:06:06;;;;;;;0.22;0.22;;;8.90;99.90;;;;;;4995901;28;20053;-67
2022/11/25 06:08:33;;;;;;;2.63;2.42;;;8.90;99.90;;;;;;5000099;28;20049;-67
2022/11/25 06:11:02;;;;;;;0.10;0.10;;;8.90;99.90;;;;;;5011519;28;20442;-67
2022/11/25 06:13:28;;;;;;;0.20;0.20;;;8.90;99.90;;;;;;4990683;28;20049;-67
2022/11/25 06:15:53;;;;;;;0.08;0.08;;;8.90;99.90;;;;;;4991861;28;20046;-67
2022/11/25 06:18:19;;;;;;;0.20;0.20;;;8.90;99.90;;;;;;5009957;28;20050;-67
2022/11/25 06:20:44;;;;;;;0.35;0.35;;;9.00;99.90;;;;;;5010072;28;20042;-67
2022/11/25 06:23:10;;;;;;;0.15;0.15;;;9.00;99.90;;;;;;5003407;28;20057;-66
2022/11/25 06:25:36;;;;;;;0.45;0.45;;;9.00;99.90;;;;;;5010747;28;20042;-66
2022/11/25 06:28:02;;;;;;;0.00;0.00;;;9.00;99.90;;;;;;5008549;28;20049;-66
2022/11/25 06:30:29;;;;;;;0.77;0.77;;;9.00;99.90;;;;;;5010171;28;20042;-67
2022/11/25 06:32:54;;;;;;;17.65;1.20;;;8.90;99.90;;;;;;4992925;28;20050;-67
2022/11/25 06:35:20;;;;;;;0.35;0.35;;;8.90;99.90;;;;;;4999523;28;20087;-66
2022/11/25 06:37:46;;;;;;;0.65;0.65;;;8.90;99.90;;;;;;5007533;28;20049;-67
2022/11/25 06:40:12;;;;;;;0.30;0.30;;;8.80;99.90;;;;;;5008782;28;20363;-66
2022/11/25 06:42:38;;;;;;;0.10;0.10;;;8.80;99.90;;;;;;5008674;28;20083;-66
2022/11/25 06:45:05;;;;;;;0.10;0.10;;;8.80;99.90;;;;;;5013288;28;20095;-66
2022/11/25 06:47:31;;;;;;;4.90;2.17;;;8.70;99.90;;;;;;5001937;28;20046;-67
2022/11/25 06:49:56;;;;;;;0.28;0.28;;;8.70;99.90;;;;;;5003460;28;20033;-66
2022/11/25 06:52:22;;;;;;;0.00;0.00;;;8.70;99.90;;;;;;4993439;28;20054;-66
2022/11/25 06:54:48;;;;;;;0.10;0.10;;;8.70;99.90;;;;;;5011611;28;20053;-66
2022/11/25 06:57:17;;;;;;;0.57;0.57;;;8.70;99.90;;;;;;5010012;28;20048;-66
2022/11/25 06:59:43;;;;;;;0.10;0.10;;;8.70;99.90;;;;;;4998538;28;20080;-65
2022/11/25 07:02:11;;;;;;;0.08;0.08;;;8.60;99.90;;;;;;5026477;28;20045;-66
2022/11/25 07:04:37;;;;;;;0.20;0.20;;;8.60;99.90;;;;;;4990383;28;20100;-65
2022/11/25 07:07:03;;;;;;;2.20;2.05;;;8.60;99.90;;;;;;5003117;28;20042;-66
2022/11/25 07:09:29;;;;;;;0.10;0.10;;;8.50;99.90;;;;;;5011427;28;20048;-66
2022/11/25 07:11:55;;;;;;;0.10;0.10;;;8.50;99.90;;;;;;5008977;28;20038;-66
2022/11/25 07:14:20;;;;;;;0.32;0.32;;;8.50;99.90;;;;;;5010358;28;20054;-66
2022/11/25 07:16:46;;;;;;;0.17;0.17;;;8.50;99.90;;;;;;5013728;28;20046;-66
2022/11/25 07:19:14;;;;;;;0.10;0.10;;;8.50;99.90;;;;;;5012884;28;20116;-66
2022/11/25 07:21:42;;;;;;;0.10;0.10;;;8.50;99.90;;;;;;5004343;28;20081;-66
2022/11/25 07:24:09;;;;;;;0.20;0.20;;;8.50;99.90;;;;;;5010527;28;20122;-66
2022/11/25 07:26:37;;;;;;;0.10;0.10;;;8.50;99.90;;;;;;4983294;28;20046;-66
2022/11/25 07:29:05;;;;;;;0.38;0.38;;;8.50;99.90;;;;;;5004397;28;20092;-66
2022/11/25 07:31:33;;;;;;;0.20;0.20;;;8.50;99.90;;;;;;5004937;28;20042;-66
2022/11/25 07:34:04;;;;;;;0.10;0.10;;;8.50;99.90;;;;;;5008455;28;20041;-66
2022/11/25 07:36:30;;;;;;;0.20;0.20;;;8.50;99.90;;;;;;5006332;28;20049;-66
2022/11/25 07:39:02;;;;;;;0.15;0.15;;;8.50;99.90;;;;;;5005769;28;20254;-66
2022/11/25 07:41:28;;;;;;;0.15;0.15;;;8.50;99.90;;;;;;4996718;28;20046;-67
2022/11/25 07:43:57;;;;;;;0.00;0.00;;;8.40;99.90;;;;;;5007194;28;20441;-66
2022/11/25 07:46:24;;;;;;;0.10;0.10;;;8.40;99.90;;;;;;5001585;28;20081;-66
2022/11/25 07:48:51;;;;;;;0.10;0.10;;;8.40;99.90;;;;;;4996554;28;20042;-66
2022/11/25 07:51:20;;;;;;;0.90;0.82;;;8.40;99.90;;;;;;5000275;28;20485;-66
2022/11/25 07:53:47;;;;;;;2.80;2.55;;;8.30;99.90;;;;;;4977206;28;20101;-66
2022/11/25 07:56:13;;;;;;;0.10;0.10;;;8.40;99.90;;;;;;5000205;28;20084;-66
2022/11/25 07:58:40;;;;;;;0.43;0.43;;;8.40;99.90;;;;;;5006148;28;20046;-66
2022/11/25 08:01:07;;;;;;;0.10;0.10;;;8.40;99.90;;;;;;5008386;28;20548;-66
2022/11/25 08:03:34;;;;;;;0.93;0.90;;;8.40;99.90;;;;;;5004359;28;20042;-66
2022/11/25 08:06:08;;;;;;;0.10;0.10;;;8.40;99.90;;;;;;5002701;28;20077;-66
2022/11/25 08:08:36;;;;;;;0.38;0.38;;;8.40;99.90;;;;;;5003338;28;20054;-66
2022/11/25 08:11:15;;;;;;;0.20;0.20;;;8.40;99.90;;;;;;4993878;28;20050;-66
2022/11/25 08:13:42;;;;;;;0.10;0.10;;;8.40;99.90;;;;;;5008258;28;20073;-66
2022/11/25 08:16:10;;;;;;;1.20;1.15;;;8.40;99.90;;;;;;5008677;28;20109;-66
2022/11/25 08:18:36;;;;;;;0.00;0.00;;;8.50;99.90;;;;;;5008694;28;20045;-66
2022/11/25 08:21:07;;;;;;;0.10;0.10;;;8.40;99.90;;;;;;5012155;28;20046;-66
2022/11/25 08:23:34;;;;;;;0.10;0.10;;;8.40;99.90;;;;;;5002820;28;20064;-67
2022/11/25 08:26:14;;;;;;;0.30;0.30;;;8.50;99.90;;;;;;5000345;28;20069;-67
2022/11/25 08:28:41;;;;;;;5.85;1.65;;;8.50;99.90;;;;;;5007798;28;20381;-66
2022/11/25 08:31:17;;;;;;;0.10;0.10;;;8.50;99.90;;;;;;5003318;28;20050;-67
2022/11/25 08:33:43;;;;;;;0.20;0.20;;;8.50;99.90;;;;;;5004320;28;20624;-66
2022/11/25 08:36:09;;;;;;;0.45;0.45;;;8.50;99.90;;;;;;4998338;28;20046;-66
2022/11/25 08:38:35;;;;;;;0.10;0.10;;;8.50;99.90;;;;;;5013129;28;20038;-67
2022/11/25 08:41:01;;;;;;;0.10;0.10;;;8.50;99.90;;;;;;5001176;28;20041;-66
2022/11/25 08:43:27;;;;;;;1.95;0.63;;;8.50;99.90;;;;;;5016330;28;20045;-66
2022/11/25 08:45:53;;;;;;;0.10;0.10;;;8.60;99.90;;;;;;5006091;28;20050;-66
2022/11/25 08:48:20;;;;;;;0.10;0.10;;;8.60;99.90;;;;;;4983864;28;20046;-66
2022/11/25 08:50:49;;;;;;;0.00;0.00;;;8.60;99.90;;;;;;4999675;28;20081;-66
2022/11/25 08:53:15;;;;;;;0.10;0.10;;;8.60;99.90;;;;;;5013655;28;20126;-66
2022/11/25 08:55:41;;;;;;;0.35;0.35;;;8.60;99.90;;;;;;4989522;28;20045;-66
2022/11/25 08:58:09;;;;;;;0.25;0.25;;;8.60;99.90;;;;;;5011047;28;20052;-66
2022/11/25 09:00:36;;;;;;;0.20;0.20;;;8.60;99.90;;;;;;5013359;28;20053;-65
2022/11/25 09:03:02;;;;;;;0.10;0.10;;;8.60;99.90;;;;;;5011937;28;20504;-65
2022/11/25 09:05:34;;;;;;;0.10;0.10;;;8.70;99.90;;;;;;5010235;28;20046;-64
2022/11/25 09:08:03;;;;;;;0.80;0.43;;;8.70;99.90;;;;;;5015991;28;20085;-64
2022/11/25 09:10:29;;;;;;;0.10;0.10;;;8.70;99.90;;;;;;4999899;28;20050;-65
2022/11/25 09:12:54;;;;;;;0.10;0.10;;;8.70;99.90;;;;;;5014430;28;20119;-65
2022/11/25 09:15:20;;;;;;;0.32;0.32;;;8.70;99.90;;;;;;5013258;28;20474;-65
2022/11/25 09:17:45;;;;;;;0.30;0.30;;;8.80;99.90;;;;;;5010656;28;20038;-65
2022/11/25 09:20:11;;;;;;;0.10;0.10;;;8.80;99.90;;;;;;4993700;28;20046;-65
2022/11/25 09:22:37;;;;;;;0.10;0.10;;;8.80;99.90;;;;;;4976421;28;20046;-65
2022/11/25 09:25:03;;;;;;;0.10;0.10;;;8.80;99.90;;;;;;5007683;28;20054;-64
2022/11/25 09:27:30;;;;;;;0.10;0.10;;;8.90;99.90;;;;;;4994092;28;20048;-65
2022/11/25 09:29:55;;;;;;;0.10;0.10;;;9.00;99.90;;;;;;4993370;28;20125;-65
2022/11/25 09:32:21;;;;;;;0.10;0.10;;;9.00;99.90;;;;;;5010154;28;20184;-65
2022/11/25 09:34:46;;;;;;;0.50;0.50;;;9.00;99.90;;;;;;5012103;28;20096;-65
2022/11/25 09:37:12;;;;;;;0.00;0.00;;;9.00;99.90;;;;;;5012343;28;20046;-65
2022/11/25 09:39:38;;;;;;;2.42;1.35;;;9.10;99.90;;;;;;5016671;28;20038;-65
2022/11/25 09:48:20;;;;;;;0.00;0.00;;;9.10;99.90;;;;;;4992642;28;20050;-65
2022/11/25 09:50:52;;;;;;;0.43;0.43;;;9.20;99.90;;;;;;4992937;28;20101;-65
2022/11/25 09:53:45;;;;;;;0.10;0.10;;;9.20;99.90;;;;;;4995715;28;20309;-65
2022/11/25 09:56:31;;;;;;;0.15;0.15;;;9.30;99.90;;;;;;5003634;28;20053;-64
2022/11/25 09:59:06;;;;;;;0.20;0.20;;;9.30;99.90;;;;;;5010278;28;20054;-65
2022/11/25 10:01:38;;;;;;;0.35;0.35;;;9.40;99.90;;;;;;5010876;28;20038;-65
2022/11/25 10:04:12;;;;;;;2.00;1.48;;;9.40;99.90;;;;;;5011597;28;20065;-65
2022/11/25 10:06:49;;;;;;;0.10;0.10;;;9.40;99.90;;;;;;5013631;28;20109;-65
2022/11/25 10:09:21;;;;;;;0.10;0.10;;;9.40;99.90;;;;;;5008647;28;20095;-65
2022/11/25 10:11:53;;;;;;;0.00;0.00;;;9.30;99.90;;;;;;4998234;28;20046;-65
2022/11/25 10:14:41;;;;;;;0.52;0.47;;;9.40;99.90;;;;;;5009960;28;20073;-65
2022/11/25 10:17:14;;;;;;;0.10;0.10;;;9.40;99.90;;;;;;4995745;28;20042;-65
2022/11/25 10:19:58;;;;;;;0.13;0.13;;;9.50;99.90;;;;;;4998153;28;20122;-65
2022/11/25 10:22:40;;;;;;;0.20;0.20;;;9.60;99.90;;;;;;4995893;28;20076;-65
2022/11/25 10:25:19;;;;;;;0.10;0.10;;;9.70;99.90;;;;;;4996028;28;20046;-65
2022/11/25 10:28:13;;;;;;;0.10;0.10;;;9.70;99.90;;;;;;4993366;28;20053;-65
2022/11/25 10:30:57;;;;;;;0.10;0.10;;;9.80;99.90;;;;;;5012126;28;20117;-65
2022/11/25 10:33:41;;;;;;;;;;;9.70;99.90;;;;;;4981296;28;20112;-64
2022/11/25 10:36:17;;;;;;;0.10;0.10;;;9.70;99.90;;;;;;5002972;28;19925;-65
2022/11/25 10:39:06;;;;;;;0.10;0.10;;;9.70;99.90;;;;;;5009311;28;20089;-65
2022/11/25 10:41:41;;;;;;;0.88;0.80;;;9.70;99.90;;;;;;4989020;28;20046;-65
2022/11/25 10:44:18;;;;;;;0.10;0.10;;;9.80;99.90;;;;;;4988904;28;20560;-64
2022/11/25 10:46:56;;;;;;;0.35;0.35;;;9.80;99.90;;;;;;5000414;28;20061;-65
2022/11/25 10:50:00;;;;;;;0.00;0.00;;;9.90;99.90;;;;;;5002996;28;20719;-65
2022/11/25 10:52:28;;;;;;;;;;;9.90;99.90;;;;;;5006684;28;20054;-65
2022/11/25 10:55:09;;;;;;;0.10;0.10;;;9.90;99.90;;;;;;5005896;28;20016;-66
2022/11/25 10:57:35;;;;;;;0.10;0.10;;;9.90;99.90;;;;;;5003487;28;20034;-65
2022/11/25 11:00:03;;;;;;;0.10;0.10;;;9.90;99.90;;;;;;5000625;28;20041;-63
2022/11/25 11:02:39;;;;;;;0.80;0.80;;;9.90;99.90;;;;;;5011367;28;20473;-65
2022/11/25 11:05:08;;;;;;;0.28;0.28;;;10.00;99.90;;;;;;5009662;28;20586;-65
2022/11/25 11:07:37;;;;;;;0.32;0.32;;;10.10;99.90;;;;;;5005552;28;20423;-66
2022/11/25 11:10:19;;;;;;;0.10;0.10;;;10.10;99.90;;;;;;5004322;28;20605;-65
2022/11/25 11:13:01;;;;;;;0.38;0.38;;;10.10;99.90;;;;;;4997792;28;20089;-66
2022/11/25 11:15:42;;;;;;;0.00;0.00;;;10.10;99.90;;;;;;4985887;28;20054;-65
2022/11/25 11:18:20;;;;;;;0.10;0.10;;;10.20;99.90;;;;;;4976398;28;20469;-65
2022/11/25 11:20:51;;;;;;;0.10;0.10;;;10.30;99.90;;;;;;4994411;28;20490;-66
2022/11/25 11:23:16;;;;;;;0.10;0.10;;;10.40;99.90;;;;;;5010226;28;20126;-65
2022/11/25 11:25:55;;;;;;;0.20;0.20;;;10.40;99.90;;;;;;5010371;28;20539;-66
2022/11/25 11:28:35;;;;;;;0.10;0.10;;;10.40;99.90;;;;;;5005274;28;20042;-65
2022/11/25 11:31:13;;;;;;;0.10;0.10;;;10.50;99.90;;;;;;4992024;28;20057;-65
2022/11/25 11:33:47;;;;;;;1.00;0.77;;;10.60;99.90;;;;;;4993291;28;20045;-65
2022/11/25 11:36:37;;;;;;;0.00;0.00;;;10.70;99.90;;;;;;4995853;28;20062;-65
2022/11/25 11:39:30;;;;;;;0.00;0.00;;;10.80;99.90;;;;;;4985649;28;20084;-65
2022/11/25 11:42:07;;;;;;;0.40;0.40;;;10.90;99.90;;;;;;5010696;28;20453;-65
2022/11/25 11:45:03;;;;;;;0.10;0.10;;;10.90;99.90;;;;;;5010481;28;20058;-65
2022/11/25 11:47:51;;;;;;;0.30;0.30;;;10.90;99.90;;;;;;5007848;28;20097;-65
2022/11/25 11:50:23;;;;;;;1.60;0.68;;;11.00;99.90;;;;;;5005602;28;20069;-65
2022/11/25 11:53:26;;;;;;;0.00;0.00;;;10.90;99.90;;;;;;4999477;28;20053;-65
2022/11/25 11:56:01;;;;;;;0.00;0.00;;;11.30;99.90;;;;;;5003182;28;20045;-65
2022/11/25 11:58:54;;;;;;;2.42;0.85;;;11.50;99.90;;;;;;5009534;28;20056;-65
2022/11/25 12:01:40;;;;;;;4.55;0.90;;;11.70;99.90;;;;;;5008976;28;20041;-65
2022/11/25 12:04:28;;;;;;;0.10;0.10;;;11.70;99.90;;;;;;5006283;28;20054;-65
2022/11/25 12:07:14;;;;;;;0.10;0.10;;;11.50;99.90;;;;;;5002209;28;20104;-64
2022/11/25 12:10:09;;;;;;;0.20;0.20;;;11.70;99.90;;;;;;5000456;28;20045;-65
2022/11/25 12:12:47;;;;;;;0.10;0.10;;;11.70;99.90;;;;;;4986554;28;20101;-65
2022/11/25 12:15:40;;;;;;;0.20;0.20;;;11.70;99.90;;;;;;5000275;28;20046;-65
2022/11/25 12:18:18;;;;;;;0.10;0.10;;;11.80;99.90;;;;;;5008234;28;20046;-65
2022/11/25 12:21:02;;;;;;;5.28;1.45;;;11.70;99.90;;;;;;5015770;28;20048;-66
2022/11/25 12:23:49;;;;;;;3.63;1.40;;;11.70;99.90;;;;;;5008458;28;20096;-66
2022/11/25 12:26:25;;;;;;;0.00;0.00;;;11.70;99.90;;;;;;4993885;28;20051;-65
2022/11/25 12:28:56;;;;;;;0.10;0.10;;;11.80;99.90;;;;;;5000422;28;20057;-66
2022/11/25 12:31:30;;;;;;;0.68;0.68;;;11.80;99.90;;;;;;4999046;28;20097;-65
2022/11/25 12:34:14;;;;;;;0.25;0.25;;;12.00;99.90;;;;;;4990030;28;20042;-65
2022/11/25 12:36:44;;;;;;;0.90;0.85;;;12.10;99.90;;;;;;4991802;28;20442;-65
2022/11/25 12:39:31;;;;;;;0.30;0.30;;;12.20;99.90;;;;;;4993591;28;20096;-65
2022/11/25 12:42:01;;;;;;;0.10;0.10;;;12.20;99.90;;;;;;4989741;28;20506;-66
2022/11/25 12:44:32;;;;;;;0.40;0.40;;;12.10;99.90;;;;;;5000599;28;20162;-66
2022/11/25 12:46:58;;;;;;;0.10;0.10;;;12.00;99.90;;;;;;5010063;28;20056;-65
2022/11/25 12:49:29;;;;;;;0.40;0.40;;;11.90;99.90;;;;;;4991626;28;20402;-65
2022/11/25 12:52:15;;;;;;;0.10;0.10;;;11.90;99.90;;;;;;4990324;28;20487;-65
2022/11/25 12:55:01;;;;;;;0.00;0.00;;;11.80;99.90;;;;;;5001871;28;20045;-65
2022/11/25 12:57:46;;;;;;;0.10;0.10;;;11.80;99.90;;;;;;5007793;28;20054;-65
2022/11/25 13:00:25;;;;;;;0.43;0.43;;;11.80;99.90;;;;;;5001971;28;20046;-65
2022/11/25 13:03:12;;;;;;;0.00;0.00;;;11.70;99.90;;;;;;4993847;28;20050;-66
2022/11/25 13:05:58;;;;;;;0.28;0.28;;;11.60;99.90;;;;;;4972896;28;20088;-66
2022/11/25 13:09:08;;;;;;;0.10;0.10;;;11.70;99.90;;;;;;5007931;28;20038;-66
2022/11/25 13:11:54;;;;;;;8.50;2.00;;;11.80;99.90;;;;;;4982488;28;20388;-65
2022/11/25 13:14:38;;;;;;;0.10;0.10;;;12.20;99.90;;;;;;5010044;28;20046;-66
2022/11/25 13:17:08;;;;;;;0.00;0.00;;;12.40;99.90;;;;;;5012925;28;20080;-66
2022/11/25 13:19:35;;;;;;;0.10;0.10;;;12.60;99.90;;;;;;5009273;28;20042;-66
2022/11/25 13:22:23;;;;;;;1.40;1.13;;;12.90;99.90;;;;;;4996279;28;20042;-66
2022/11/25 13:24:49;;;;;;;0.28;0.28;;;12.80;99.90;;;;;;4993191;28;20088;-66